Strona główna
METAR-TAF:

METAR-TAF

Lotnisko :

Moorhead Municipal Airport

Moorhead, Minnesota, Stany Zjednoczone

Szerokość geograficzna: 46-50-21N, Długość geograficzna: 096-39-47W, wysokość: 280 m

Aktualna obserwacja pogody

Raport powstał 24 minut temu, godzina 04:55 UTC
Wiatr 7 kt od południe
Temperatura -3°C
Wilgotność 74%
Ciśnienie 1021 hPa
Widzialność: 16.1 km
Zachmurzenie całkowite na wysokości 600 ft

METAR: KJKJ 070455Z AUTO 17007KT 10SM OVC006 M03/M07 A3015 RMK AO2

czas: 23:19 (05:19 UTC)


TAF: brakujący

Obserwacja i prognoza pogody dla ponad 4000 lotnisk (raport METAR i TAF).

Dostępne stacje oznaczono żółtymi i czerwonymi punktami na mapie.

Najedź kursorem aby zobaczyć nazwę stacji.

Kliknij aby zobaczyć obserwacje i prognozy pogody.

Aby zmienić mapę: kliknij na zielony przycisk z czarnym krzyżykiem, aby powiększyć; na zielony przycisk z myślnikiem, aby pomniejszyć; na zielone strzałki, aby przejść do map sąsiednich.


METAR-TAF: